createdAt,value
2018-08-17T00:00:31.155Z,3.90
2018-08-17T00:05:24.251Z,4.28
2018-08-17T00:10:17.396Z,4.50
2018-08-17T00:15:10.455Z,3.67
2018-08-17T00:20:03.611Z,3.80
2018-08-17T00:24:56.643Z,4.00
2018-08-17T00:29:49.789Z,4.00
2018-08-17T00:34:42.777Z,3.72
2018-08-17T00:39:35.734Z,3.85
2018-08-17T00:44:28.841Z,4.20
2018-08-17T00:49:21.839Z,3.70
2018-08-17T00:54:14.899Z,4.10
2018-08-17T00:59:07.958Z,3.80
2018-08-17T01:04:01.042Z,3.83
2018-08-17T01:08:54.071Z,3.50
2018-08-17T01:13:47.371Z,3.60
2018-08-17T01:18:40.409Z,3.20
2018-08-17T01:23:33.584Z,3.27
2018-08-17T01:28:26.709Z,3.75
2018-08-17T01:33:19.822Z,4.00
2018-08-17T01:38:12.839Z,4.00
2018-08-17T01:43:06.110Z,3.47
2018-08-17T01:47:59.093Z,4.05
2018-08-17T01:52:52.799Z,4.10
2018-08-17T01:57:45.803Z,4.35
2018-08-17T02:02:40.575Z,4.00
2018-08-17T02:07:33.864Z,3.80
2018-08-17T02:12:27.221Z,3.98
2018-08-17T02:17:20.335Z,3.50
2018-08-17T02:22:13.403Z,3.90
2018-08-17T02:27:06.561Z,3.58
2018-08-17T02:31:59.593Z,3.17
2018-08-17T02:36:52.624Z,3.47
2018-08-17T02:41:45.707Z,3.50
2018-08-17T02:46:38.791Z,3.17
2018-08-17T02:51:31.716Z,3.27
2018-08-17T02:56:24.654Z,3.40
2018-08-17T03:01:17.678Z,3.72
2018-08-17T03:06:10.729Z,3.15
2018-08-17T03:11:03.939Z,3.87
2018-08-17T03:15:56.963Z,3.40
2018-08-17T03:20:50.106Z,3.45
2018-08-17T03:25:43.398Z,3.10
2018-08-17T03:30:36.524Z,3.50
2018-08-17T03:35:29.650Z,4.03
2018-08-17T03:40:22.630Z,3.35
2018-08-17T03:45:15.641Z,3.52
2018-08-17T03:50:08.751Z,3.75
2018-08-17T03:55:01.976Z,4.12
2018-08-17T03:59:55.068Z,3.70
2018-08-17T04:04:48.097Z,3.87
2018-08-17T04:09:41.217Z,3.80
2018-08-17T04:14:34.229Z,4.28
2018-08-17T04:19:27.290Z,4.10
2018-08-17T04:24:20.414Z,4.50
2018-08-17T04:29:13.635Z,3.95
2018-08-17T04:34:06.745Z,4.17
2018-08-17T04:38:59.766Z,3.65
2018-08-17T04:43:53.094Z,4.58
2018-08-17T04:48:46.045Z,3.35
2018-08-17T04:53:39.045Z,4.47
2018-08-17T04:58:32.131Z,4.92
2018-08-17T05:03:25.102Z,4.97
2018-08-17T05:08:18.311Z,4.78
2018-08-17T05:13:11.277Z,4.08
2018-08-17T05:18:04.326Z,5.03
2018-08-17T05:22:57.463Z,4.50
2018-08-17T05:27:50.612Z,5.03
2018-08-17T05:32:43.582Z,5.10
2018-08-17T05:37:36.523Z,4.87
2018-08-17T05:42:29.639Z,5.58
2018-08-17T05:47:22.825Z,4.92
2018-08-17T05:52:15.838Z,5.20
2018-08-17T05:57:08.863Z,4.90
2018-08-17T06:02:02.251Z,4.67
2018-08-17T06:06:55.434Z,5.35
2018-08-17T06:11:48.616Z,5.72
2018-08-17T06:16:42.662Z,5.58
2018-08-17T06:21:35.694Z,4.83
2018-08-17T06:26:28.590Z,4.95
2018-08-17T06:31:22.073Z,5.40
2018-08-17T06:36:15.149Z,5.40
2018-08-17T06:41:08.902Z,5.67
2018-08-17T06:46:01.955Z,5.37
2018-08-17T06:50:55.023Z,5.45
2018-08-17T06:55:47.982Z,5.47
2018-08-17T07:00:41.754Z,5.05
2018-08-17T07:05:34.825Z,5.30
2018-08-17T07:10:27.973Z,5.35
2018-08-17T07:15:21.160Z,5.10
2018-08-17T07:20:14.187Z,5.83
2018-08-17T07:25:07.476Z,5.03
2018-08-17T07:30:00.883Z,5.37
2018-08-17T07:34:53.940Z,5.20
2018-08-17T07:39:48.302Z,4.70
2018-08-17T07:44:41.915Z,4.92
2018-08-17T07:49:35.258Z,5.28
2018-08-17T07:54:28.361Z,5.12
2018-08-17T07:59:21.455Z,4.42
2018-08-17T08:04:14.429Z,4.40
2018-08-17T08:09:09.839Z,4.72
2018-08-17T08:14:06.694Z,4.53
2018-08-17T08:19:03.231Z,4.55
2018-08-17T08:23:56.793Z,4.12
2018-08-17T08:28:49.791Z,4.95
2018-08-17T08:33:46.345Z,4.62
2018-08-17T08:38:39.365Z,4.22
2018-08-17T08:43:32.531Z,4.20
2018-08-17T08:48:25.619Z,4.22
2018-08-17T08:53:19.566Z,4.20
2018-08-17T08:58:12.990Z,4.35
2018-08-17T09:03:07.554Z,4.12
2018-08-17T09:08:02.000Z,4.12
2018-08-17T09:12:55.006Z,3.92
2018-08-17T09:17:48.106Z,4.50
2018-08-17T09:22:41.660Z,4.05
2018-08-17T09:27:35.562Z,4.05
2018-08-17T09:32:30.545Z,4.20
2018-08-17T09:37:25.732Z,3.90
2018-08-17T09:42:18.774Z,4.28
2018-08-17T09:47:11.732Z,4.60
2018-08-17T09:52:05.096Z,4.10
2018-08-17T09:56:58.646Z,3.58
2018-08-17T10:01:57.323Z,3.72
2018-08-17T10:06:56.563Z,3.98
2018-08-17T10:11:50.947Z,3.87
2018-08-17T10:16:44.127Z,4.20
2018-08-17T10:21:56.175Z,4.28
2018-08-17T10:26:49.729Z,4.30
2018-08-17T10:31:43.311Z,4.60
2018-08-17T10:36:36.456Z,4.35
2018-08-17T10:41:29.701Z,4.10
2018-08-17T10:46:22.756Z,4.40
2018-08-17T10:51:15.701Z,5.00
2018-08-17T10:56:08.746Z,4.75
2018-08-17T11:01:01.896Z,4.92
2018-08-17T11:05:54.855Z,4.22
2018-08-17T11:10:47.953Z,4.53
2018-08-17T11:15:40.900Z,4.62
2018-08-17T11:20:33.960Z,4.92
2018-08-17T11:25:27.040Z,5.55
2018-08-17T11:30:20.260Z,5.17
2018-08-17T11:35:13.278Z,5.50
2018-08-17T11:40:07.854Z,5.78
2018-08-17T11:45:01.355Z,5.33
2018-08-17T11:49:54.503Z,5.92
2018-08-17T11:54:47.488Z,5.30
2018-08-17T12:00:00.445Z,5.50
2018-08-17T12:04:53.446Z,5.55
2018-08-17T12:09:51.889Z,6.05
2018-08-17T12:14:47.225Z,5.97
2018-08-17T12:19:40.246Z,5.87
2018-08-17T12:24:33.256Z,6.10
2018-08-17T12:29:26.556Z,5.70
2018-08-17T12:34:19.556Z,5.75
2018-08-17T12:39:12.586Z,6.15
2018-08-17T12:44:06.039Z,6.05
2018-08-17T12:48:59.067Z,5.85
2018-08-17T12:53:52.128Z,6.30
2018-08-17T12:58:45.154Z,5.92
2018-08-17T13:03:38.189Z,6.53
2018-08-17T13:08:31.094Z,6.80
2018-08-17T13:13:24.045Z,5.40
2018-08-17T13:18:22.824Z,4.13
2018-08-17T13:23:15.932Z,3.40
2018-08-17T13:28:09.013Z,4.45
2018-08-17T13:33:02.025Z,4.28
2018-08-17T13:37:55.173Z,4.10
2018-08-17T13:42:48.294Z,3.98
2018-08-17T13:47:41.331Z,4.80
2018-08-17T13:52:34.410Z,4.90
2018-08-17T13:57:27.682Z,4.67
2018-08-17T14:02:20.721Z,5.50
2018-08-17T14:07:13.804Z,5.17
2018-08-17T14:12:07.896Z,4.78
2018-08-17T14:17:01.139Z,5.17
2018-08-17T14:21:54.062Z,5.87
2018-08-17T14:26:47.255Z,5.62
2018-08-17T14:31:40.348Z,5.58
2018-08-17T14:36:33.358Z,12.37
2018-08-17T14:41:26.354Z,5.30
2018-08-17T14:46:23.706Z,5.62
2018-08-17T14:51:16.732Z,5.08
2018-08-17T14:56:09.628Z,5.62
2018-08-17T15:01:02.735Z,5.30
2018-08-17T15:05:55.740Z,5.42
2018-08-17T15:10:48.860Z,5.87
2018-08-17T15:15:41.926Z,5.40
2018-08-17T15:20:36.584Z,5.85
2018-08-17T15:25:29.649Z,5.50
2018-08-17T15:30:22.660Z,5.67
2018-08-17T15:35:15.660Z,5.35
2018-08-17T15:40:10.747Z,5.60
2018-08-17T15:45:04.571Z,5.03
2018-08-17T15:50:28.670Z,5.17
2018-08-17T15:55:21.900Z,5.00
2018-08-17T16:00:19.934Z,5.45
2018-08-17T16:05:12.973Z,5.42
2018-08-17T16:10:07.547Z,5.55
2018-08-17T16:15:00.738Z,4.95
2018-08-17T16:19:54.138Z,5.45
2018-08-17T16:24:47.218Z,5.55
2018-08-17T16:29:40.221Z,5.70
2018-08-17T16:34:33.269Z,5.58
2018-08-17T16:39:26.395Z,5.15
2018-08-17T16:44:19.468Z,5.62
2018-08-17T16:49:12.513Z,5.12
2018-08-17T16:54:05.814Z,5.05
2018-08-17T16:58:58.911Z,5.47
2018-08-17T17:03:52.139Z,5.22
2018-08-17T17:08:45.029Z,5.55
2018-08-17T17:13:39.777Z,6.05
2018-08-17T17:18:32.823Z,5.70
2018-08-17T17:23:25.893Z,6.10
2018-08-17T17:28:18.915Z,5.85
2018-08-17T17:33:12.140Z,6.20
2018-08-17T17:38:07.731Z,5.70
2018-08-17T17:43:01.006Z,5.97
2018-08-17T17:47:54.072Z,5.58
2018-08-17T17:52:47.160Z,6.03
2018-08-17T17:57:40.179Z,5.87
2018-08-17T18:02:33.761Z,6.00
2018-08-17T18:07:50.363Z,6.00
2018-08-17T18:12:43.423Z,5.78
2018-08-17T18:17:36.462Z,6.55
2018-08-17T18:22:32.049Z,5.90
2018-08-17T18:27:26.792Z,5.70
2018-08-17T18:32:19.863Z,6.37
2018-08-17T18:37:12.954Z,5.72
2018-08-17T18:42:06.300Z,5.80
2018-08-17T18:46:59.494Z,6.53
2018-08-17T18:51:53.794Z,6.17
2018-08-17T18:57:02.816Z,6.03
2018-08-17T19:01:56.023Z,6.17
2018-08-17T19:08:07.661Z,6.55
2018-08-17T19:13:00.904Z,6.08
2018-08-17T19:17:54.077Z,6.37
2018-08-17T19:22:47.176Z,5.97
2018-08-17T19:27:40.871Z,5.90
2018-08-17T19:32:33.989Z,5.78
2018-08-17T19:37:26.933Z,5.30
2018-08-17T19:42:19.873Z,5.53
2018-08-17T19:47:12.860Z,5.42
2018-08-17T19:52:06.233Z,5.62
2018-08-17T19:56:59.319Z,5.47
2018-08-17T20:01:52.418Z,6.20
2018-08-17T20:06:45.752Z,5.72
2018-08-17T20:11:38.744Z,6.75
2018-08-17T20:16:31.780Z,6.03
2018-08-17T20:21:25.637Z,5.85
2018-08-17T20:26:19.050Z,5.83
2018-08-17T20:31:11.784Z,6.00
2018-08-17T20:36:04.869Z,6.12
2018-08-17T20:40:59.688Z,5.70
2018-08-17T20:45:52.655Z,6.20
2018-08-17T20:50:45.658Z,5.90
2018-08-17T20:55:38.616Z,5.85
2018-08-17T21:00:31.733Z,5.97
2018-08-17T21:05:24.840Z,5.58
2018-08-17T21:10:17.955Z,5.97
2018-08-17T21:15:10.933Z,6.00
2018-08-17T21:20:04.752Z,5.75
2018-08-17T21:24:57.813Z,5.95
2018-08-17T21:29:50.922Z,5.97
2018-08-17T21:34:43.841Z,5.67
2018-08-17T21:39:37.946Z,5.70
2018-08-17T21:44:30.935Z,5.67
2018-08-17T21:49:25.276Z,5.90
2018-08-17T21:54:18.772Z,5.75
2018-08-17T21:59:11.829Z,5.90
2018-08-17T22:04:04.864Z,5.85
2018-08-17T22:08:57.912Z,5.12
2018-08-17T22:13:51.023Z,5.97
2018-08-17T22:18:44.063Z,6.03
2018-08-17T22:23:37.039Z,6.22
2018-08-17T22:28:30.097Z,5.42
2018-08-17T22:33:23.202Z,6.03
2018-08-17T22:38:16.235Z,6.20
2018-08-17T22:43:09.158Z,5.78
2018-08-17T22:48:02.123Z,6.10
2018-08-17T22:52:55.210Z,5.80
2018-08-17T22:57:48.155Z,6.15
2018-08-17T23:02:42.265Z,6.22
2018-08-17T23:07:35.298Z,6.33
2018-08-17T23:12:28.367Z,6.05
2018-08-17T23:17:21.502Z,6.72
2018-08-17T23:22:14.767Z,7.35
2018-08-17T23:27:07.702Z,6.60
2018-08-17T23:32:00.894Z,5.97
2018-08-17T23:36:53.907Z,6.17
2018-08-17T23:41:47.924Z,5.83
2018-08-17T23:46:40.954Z,6.60
2018-08-17T23:51:33.952Z,6.67
2018-08-17T23:56:27.026Z,6.28
